Map

Track Data

SID SEASON NUMBER BASIN SUBBASIN NAME ISO_TIME NATURE LAT LON WMO_WIND WMO_PRES WMO_AGENCY TRACK_TYPE DIST2LAND LANDFALL IFLAG USA_AGENCY USA_ATCF_ID USA_LAT USA_LON USA_RECORD USA_STATUS USA_WIND USA_PRES USA_SSHS USA_R34_NE USA_R34_SE USA_R34_SW USA_R34_NW USA_R50_NE USA_R50_SE USA_R50_SW USA_R50_NW USA_R64_NE USA_R64_SE USA_R64_SW USA_R64_NW USA_POCI USA_ROCI USA_RMW USA_EYE TOKYO_LAT TOKYO_LON TOKYO_GRADE TOKYO_WIND TOKYO_PRES TOKYO_R50_DIR TOKYO_R50_LONG TOKYO_R50_SHORT TOKYO_R30_DIR TOKYO_R30_LONG TOKYO_R30_SHORT TOKYO_LAND CMA_LAT CMA_LON CMA_CAT CMA_WIND CMA_PRES HKO_LAT HKO_LON HKO_CAT HKO_WIND HKO_PRES NEWDELHI_LAT NEWDELHI_LON NEWDELHI_GRADE NEWDELHI_WIND NEWDELHI_PRES NEWDELHI_CI NEWDELHI_DP NEWDELHI_POCI REUNION_LAT REUNION_LON REUNION_TYPE REUNION_WIND REUNION_PRES REUNION_TNUM REUNION_CI REUNION_RMW REUNION_R34_NE REUNION_R34_SE REUNION_R34_SW REUNION_R34_NW REUNION_R50_NE REUNION_R50_SE REUNION_R50_SW REUNION_R50_NW REUNION_R64_NE REUNION_R64_SE REUNION_R64_SW REUNION_R64_NW BOM_LAT BOM_LON BOM_TYPE BOM_WIND BOM_PRES BOM_TNUM BOM_CI BOM_RMW BOM_R34_NE BOM_R34_SE BOM_R34_SW BOM_R34_NW BOM_R50_NE BOM_R50_SE BOM_R50_SW BOM_R50_NW BOM_R64_NE BOM_R64_SE BOM_R64_SW BOM_R64_NW BOM_ROCI BOM_POCI BOM_EYE BOM_POS_METHOD BOM_PRES_METHOD NADI_LAT NADI_LON NADI_CAT NADI_WIND NADI_PRES WELLINGTON_LAT WELLINGTON_LON WELLINGTON_WIND WELLINGTON_PRES DS824_LAT DS824_LON DS824_STAGE DS824_WIND DS824_PRES TD9636_LAT TD9636_LON TD9636_STAGE TD9636_WIND TD9636_PRES TD9635_LAT TD9635_LON TD9635_WIND TD9635_PRES TD9635_ROCI NEUMANN_LAT NEUMANN_LON NEUMANN_CLASS NEUMANN_WIND NEUMANN_PRES MLC_LAT MLC_LON MLC_CLASS MLC_WIND MLC_PRES USA_GUST BOM_GUST BOM_GUST_PER REUNION_GUST REUNION_GUST_PER USA_SEAHGT USA_SEARAD_NE USA_SEARAD_SE USA_SEARAD_SW USA_SEARAD_NW STORM_SPEED STORM_DIR
1948150N12130 1948 33 WP MM MABEL 1948-05-29 00:00:00 TS 11.9000 129.800 main 447 447 O________OOO__ jtwc_wp WP031948 11.9000 129.800 50 0 11.9000 129.800 TC 50 11.9000 129.800 2 50 11.9000 129.800 50 996 180 9 356
1948150N12130 1948 33 WP MM MABEL 1948-05-29 03:00:00 TS 12.3499 129.751 main 459 452 P________PPP__ WP031948 12.3400 129.750 57 0 12.3400 129.750 TC 57 12.3797 129.753 2 53 12.3400 129.750 57 993 180 9 354
1948150N12130 1948 33 WP MM MABEL 1948-05-29 06:00:00 TS 12.8144 129.701 main 461 461 O________OPO__ jtwc_wp WP031948 12.8000 129.700 65 1 12.8000 129.700 TC 65 12.8575 129.705 2 57 12.8000 129.700 65 990 180 10 354
1948150N12130 1948 33 WP MM MABEL 1948-05-29 09:00:00 TS 13.3023 129.651 main 472 461 P________PPP__ WP031948 13.2925 129.650 65 1 13.2925 129.650 TC 65 13.3316 129.654 2 61 13.2925 129.650 65 987 210 10 354
1948150N12130 1948 33 WP MM MABEL 1948-05-29 12:00:00 TS 13.8000 129.600 main 479 479 O________OOO__ jtwc_wp WP031948 13.8000 129.600 65 1 13.8000 129.600 TC 65 13.8000 129.600 3 65 13.8000 129.600 65 985 240 10 355
1948150N12130 1948 33 WP MM MABEL 1948-05-29 15:00:00 TS 14.2963 129.548 main 492 492 P________PPP__ WP031948 14.3075 129.550 65 1 14.3075 129.550 TC 65 14.2628 129.542 3 66 14.3075 129.550 65 983 240 10 354
1948150N12130 1948 33 WP MM MABEL 1948-05-29 18:00:00 TS 14.7819 129.496 main 521 521 O________OPO__ jtwc_wp WP031948 14.8000 129.500 65 1 14.8000 129.500 TC 65 14.7275 129.485 3 67 14.8000 129.500 65 982 240 9 354
1948150N12130 1948 33 WP MM MABEL 1948-05-29 21:00:00 TS 15.2327 129.441 main 538 538 P________PPP__ WP031948 15.2425 129.443 67 1 15.2425 129.443 TC 67 15.2035 129.436 3 68 15.2425 129.443 67 981 240 9 354
1948150N12130 1948 33 WP MM MABEL 1948-05-30 00:00:00 TS 15.7000 129.400 main 574 574 O________OOO__ jtwc_wp WP031948 15.7000 129.400 70 1 15.7000 129.400 TC 70 15.7000 129.400 4 70 15.7000 129.400 70 980 240 10 357
1948150N12130 1948 33 WP MM MABEL 1948-05-30 03:00:00 TS 16.2334 129.387 main 595 595 P________PPP__ WP031948 16.2350 129.392 70 1 16.2350 129.392 TC 70 16.2284 129.370 4 70 16.2350 129.392 70 979 210 11 0
1948150N12130 1948 33 WP MM MABEL 1948-05-30 06:00:00 TS 16.7944 129.389 main 626 626 O________OPO__ jtwc_wp WP031948 16.8000 129.400 70 1 16.8000 129.400 TC 70 16.7775 129.355 4 70 16.8000 129.400 70 979 180 11 0
1948150N12130 1948 33 WP MM MABEL 1948-05-30 09:00:00 TS 17.3469 129.380 main 657 657 P________PPP__ WP031948 17.3500 129.385 70 1 17.3500 129.385 TC 70 17.3378 129.363 4 70 17.3500 129.385 70 978 180 11 1
1948150N12130 1948 33 WP MM MABEL 1948-05-30 12:00:00 TS 17.9000 129.400 main 697 697 O________OOO__ jtwc_wp WP031948 17.9000 129.400 70 1 17.9000 129.400 TC 70 17.9000 129.400 4 70 17.9000 129.400 70 977 180 11 5
1948150N12130 1948 33 WP MM MABEL 1948-05-30 15:00:00 TS 18.4520 129.475 main 749 749 P________PPP__ WP031948 18.4500 129.485 70 1 18.4500 129.485 TC 70 18.4580 129.447 4 71 18.4500 129.485 70 976 180 11 9
1948150N12130 1948 33 WP MM MABEL 1948-05-30 18:00:00 TS 19.0037 129.581 main 771 771 O________OPO__ jtwc_wp WP031948 19.0000 129.600 70 1 19.0000 129.600 TC 70 19.0148 129.526 4 72 19.0000 129.600 70 975 180 11 10
1948150N12130 1948 33 WP MM MABEL 1948-05-30 21:00:00 TS 19.5592 129.680 main 789 789 P________PPP__ WP031948 19.5575 129.693 72 1 19.5575 129.693 TC 72 19.5642 129.641 4 73 19.5575 129.693 72 973 210 11 11
1948150N12130 1948 33 WP MM MABEL 1948-05-31 00:00:00 TS 20.1000 129.800 main 809 809 O________OOO__ jtwc_wp WP031948 20.1000 129.800 75 1 20.1000 129.800 TC 75 20.1000 129.800 4 75 20.1000 129.800 75 971 240 11 13
1948150N12130 1948 33 WP MM MABEL 1948-05-31 03:00:00 TS 20.6122 129.935 main 833 833 P________PPP__ WP031948 20.6074 129.913 77 1 20.6074 129.913 TC 77 20.6266 130.003 4 76 20.6074 129.913 77 968 210 11 17
1948150N12130 1948 33 WP MM MABEL 1948-05-31 06:00:00 TS 21.1094 130.137 main 870 870 O________OPO__ jtwc_wp WP031948 21.1000 130.100 80 1 21.1000 130.100 TC 80 21.1375 130.247 4 77 21.1000 130.100 80 965 180 11 26
1948150N12130 1948 33 WP MM MABEL 1948-05-31 09:00:00 TS 21.6132 130.456 main 928 928 P________PPP__ WP031948 21.6077 130.435 80 1 21.6077 130.435 TC 80 21.6297 130.518 4 78 21.6077 130.435 80 964 180 12 32
1948150N12130 1948 33 WP MM MABEL 1948-05-31 12:00:00 TS 22.1000 130.800 main 947 943 O________OOO__ jtwc_wp WP031948 22.1000 130.800 80 1 22.1000 130.800 TC 80 22.1000 130.800 4 80 22.1000 130.800 80 964 180 11 30
1948150N12130 1948 33 WP MM MABEL 1948-05-31 15:00:00 TS 22.5477 131.042 main 949 905 P________PPP__ WP031948 22.5648 131.058 80 1 22.5648 131.058 TC 80 22.4964 130.995 4 76 22.5648 131.058 80 966 150 10 27
1948150N12130 1948 33 WP MM MABEL 1948-05-31 18:00:00 TS 22.9700 131.277 main 895 863 O________OPO__ jtwc_wp WP031948 23.0000 131.300 80 1 23.0000 131.300 TC 80 22.8802 131.206 4 72 23.0000 131.300 80 968 120 9 29
1948150N12130 1948 33 WP MM MABEL 1948-05-31 21:00:00 TS 23.3576 131.539 main 852 812 P________PPP__ WP031948 23.3772 131.556 72 1 23.3772 131.556 TC 72 23.2989 131.490 4 68 23.3772 131.556 72 970 120 10 35
1948150N12130 1948 33 WP MM MABEL 1948-06-01 00:00:00 TS 23.8000 131.900 main 812 764 O________OOO__ jtwc_wp WP031948 23.8000 131.900 65 1 23.8000 131.900 TC 65 23.8000 131.900 4 65 23.8000 131.900 65 973 120 13 38
1948150N12130 1948 33 WP MM MABEL 1948-06-01 03:00:00 TS 24.3531 132.385 main 755 706 P________PPP__ WP031948 24.3319 132.354 62 0 24.3319 132.354 TC 62 24.4168 132.478 4 63 24.3319 132.354 62 975 90 16 40
1948150N12130 1948 33 WP MM MABEL 1948-06-01 06:00:00 TS 25.0257 133.040 main 706 654 O________OPO__ jtwc_wp WP031948 25.0000 133.000 60 0 25.0000 133.000 TC 60 25.1285 133.199 4 62 25.0000 133.000 60 977 60 20 43
1948150N12130 1948 33 WP MM MABEL 1948-06-01 09:00:00 TS 25.8315 133.889 main 659 619 P________PPP__ WP031948 25.8200 133.867 60 0 25.8200 133.867 TC 60 25.9009 134.021 4 61 25.8200 133.867 60 978 60 24 45
1948150N12130 1948 33 WP MM MABEL 1948-06-01 12:00:00 TS 26.7000 134.900 main 624 613 O________OOO__ jtwc_wp WP031948 26.7000 134.900 60 0 26.7000 134.900 TC 60 26.7000 134.900 2 60 26.7000 134.900 60 980 60 25 48
1948150N12130 1948 33 WP MM MABEL 1948-06-01 15:00:00 TS 27.4995 135.972 main 622 580 P________P_P__ WP031948 27.4995 135.972 57 0 27.4995 135.972 TC 57 2 27.4995 135.972 57 981 90 25 51
1948150N12130 1948 33 WP MM MABEL 1948-06-01 18:00:00 TS 28.3000 137.100 main 582 527 O________O_O__ jtwc_wp WP031948 28.3000 137.100 55 0 28.3000 137.100 TC 55 2 28.3000 137.100 55 982 120 26 50
1948150N12130 1948 33 WP MM MABEL 1948-06-01 21:00:00 TS 29.1636 138.221 main 520 503 P________P_P__ WP031948 29.1636 138.221 52 0 29.1636 138.221 TC 52 2 29.1636 138.221 52 984 90 26 50
1948150N12130 1948 33 WP MM MABEL 1948-06-02 00:00:00 TS 30.0000 139.400 main 509 463 O________O_O__ jtwc_wp WP031948 30.0000 139.400 50 0 30.0000 139.400 TC 50 30.0000 139.400 50 986 60 26 53
1948150N12130 1948 33 WP MM MABEL 1948-06-02 03:00:00 TS 30.7355 140.669 main 469 432 P________P_P__ WP031948 30.7355 140.669 42 0 30.7355 140.669 TC 42 30.7355 140.669 42 989 60 26 58
1948150N12130 1948 33 WP MM MABEL 1948-06-02 06:00:00 TS 31.4000 142.000 main 436 O________O_O__ jtwc_wp WP031948 31.4000 142.000 35 0 31.4000 142.000 TC 35 31.4000 142.000 35 992 60 26 60

Digital Typhoon Data and Search

About IBTrACS Database

This database is a web-friendly format of International Best Track Archive for Climate Stewardship (IBTrACS), a global best track data archive curated by NOAA dating back to 1842.

Updated: 2021-10-08